Villa Mercedes, Argentina
Current Conditions -  °F | °C
As of 12:00 AM on Saturday 01 Nov 2014 (Local Time) from SAOC Reporting Station
Thunderstorm Thunderstorm  
Wind Chill: 57°   Ceiling: 500
Heat Index: 57°   Visibility: 4mi
Dew Point: 57°   Wind: 2mph
Humidity: 100%   Direction: 180°S
Pressure: 30.09"   Gusts: NA
Location:  33.67°S, 65.47°W
Report Text: SAOC 010300Z 18002KT 6000 -TSRA BKN005FEW040CB OVC050 14/14 Q1019
Loading
Personal Weather Stations






























Interactive Weather Map
Tropical Storm Tracking
New forecast layout! Learn more

10-Day Weather Forecast

Advertisements
Track Severe Weather on mobile